Time;durP1;ratioP1;P1;durP2;ratioP2;P2;SDS_P1;SDS_P2;PMS_P1;PMS_P2;Temp;Humidity;BMP_temperature;BMP_pressure;BME280_temperature;BME280_humidity;BME280_pressure;Samples;Min_cycle;Max_cycle;Signal;HPM_P1;HPM_P2
2022/03/14 00:00:58;;;;;;;1.90;1.80;;;;;;;13.28;52.05;101548.72;5023122;28;20346;-60
2022/03/14 00:03:25;;;;;;;2.13;1.92;;;;;;;13.31;52.02;101544.56;5027472;28;20044;-61
2022/03/14 00:05:51;;;;;;;2.20;1.70;;;;;;;13.27;52.19;101550.66;5027751;28;20060;-61
2022/03/14 00:08:19;;;;;;;2.15;1.95;;;;;;;13.24;51.86;101551.19;5016553;28;20602;-61
2022/03/14 00:10:45;;;;;;;2.50;2.10;;;;;;;13.24;51.85;101547.53;5026993;28;20113;-61
2022/03/14 00:13:11;;;;;;;2.17;1.98;;;;;;;13.21;52.16;101560.03;5022784;28;20108;-61
2022/03/14 00:15:40;;;;;;;1.98;1.77;;;;;;;13.15;52.35;101565.75;5027336;28;20038;-61
2022/03/14 00:18:07;;;;;;;2.30;2.10;;;;;;;13.18;52.33;101566.09;5023961;28;20029;-61
2022/03/14 00:20:32;;;;;;;2.05;1.92;;;;;;;13.19;52.52;101570.56;5031026;28;20400;-61
2022/03/14 00:22:58;;;;;;;2.20;2.00;;;;;;;13.22;52.10;101574.81;5021520;28;20040;-61
2022/03/14 00:25:23;;;;;;;3.17;2.13;;;;;;;13.12;52.69;101575.47;5032040;28;20068;-61
2022/03/14 00:27:49;;;;;;;3.00;1.92;;;;;;;13.16;52.19;101570.22;5030160;28;20029;-61
2022/03/14 00:30:14;;;;;;;2.08;1.90;;;;;;;13.07;52.45;101571.75;5026853;28;20115;-61
2022/03/14 00:32:40;;;;;;;3.15;2.28;;;;;;;13.09;52.93;101586.28;5029238;28;20444;-61
2022/03/14 00:35:09;;;;;;;2.20;2.00;;;;;;;13.11;52.87;101578.50;5030145;28;20392;-61
2022/03/14 00:37:36;;;;;;;2.22;2.00;;;;;;;13.10;52.68;101586.03;5028486;28;20075;-61
2022/03/14 00:40:03;;;;;;;3.85;2.15;;;;;;;13.06;53.08;101592.38;5028732;28;20036;-61
2022/03/14 00:42:28;;;;;;;2.22;2.00;;;;;;;13.07;52.60;101594.03;5031659;28;20128;-61
2022/03/14 00:44:54;;;;;;;3.22;2.50;;;;;;;13.04;53.05;101600.97;5027088;28;20030;-61
2022/03/14 00:47:21;;;;;;;2.85;2.22;;;;;;;13.06;52.93;101598.78;5030350;28;20537;-61
2022/03/14 00:49:46;;;;;;;2.60;2.30;;;;;;;13.06;52.82;101603.50;5027524;28;20427;-61
2022/03/14 00:52:12;;;;;;;2.63;2.35;;;;;;;13.12;52.86;101605.28;5027700;28;20026;-61
2022/03/14 00:54:38;;;;;;;3.10;2.10;;;;;;;13.12;53.22;101611.69;5028267;28;20471;-61
2022/03/14 00:57:03;;;;;;;3.00;2.35;;;;;;;13.10;53.07;101616.69;5029138;28;20033;-61
2022/03/14 00:59:29;;;;;;;3.13;2.50;;;;;;;13.09;53.50;101620.56;5028091;28;20120;-61
2022/03/14 01:01:54;;;;;;;2.33;2.10;;;;;;;13.06;54.23;101620.22;5030456;28;20033;-61
2022/03/14 01:04:20;;;;;;;2.75;2.42;;;;;;;13.06;54.68;101617.44;5029139;28;20033;-61
2022/03/14 01:06:46;;;;;;;3.33;2.53;;;;;;;12.99;54.46;101623.16;5027762;28;20041;-61
2022/03/14 01:09:11;;;;;;;3.25;2.80;;;;;;;12.93;54.79;101633.38;5029187;28;20464;-61
2022/03/14 01:11:37;;;;;;;2.40;2.20;;;;;;;13.00;54.50;101641.56;5028143;28;20030;-61
2022/03/14 01:14:03;;;;;;;2.72;2.50;;;;;;;12.96;54.62;101644.00;5025719;28;20025;-61
2022/03/14 01:16:28;;;;;;;2.90;2.60;;;;;;;12.98;54.59;101635.41;5024564;28;20116;-61
2022/03/14 01:18:53;;;;;;;2.60;2.40;;;;;;;12.92;54.64;101642.81;5024627;28;20057;-62
2022/03/14 01:21:19;;;;;;;3.47;2.67;;;;;;;12.95;54.75;101642.31;5026803;28;20024;-61
2022/03/14 01:23:44;;;;;;;4.10;2.80;;;;;;;12.95;54.58;101641.47;5027338;28;20037;-61
2022/03/14 01:26:09;;;;;;;3.53;2.50;;;;;;;12.93;55.03;101646.44;5027369;28;20033;-61
2022/03/14 01:28:35;;;;;;;3.30;2.85;;;;;;;12.88;55.19;101654.72;5029220;28;20021;-61
2022/03/14 01:31:00;;;;;;;3.75;2.92;;;;;;;12.89;54.88;101650.81;5026675;28;20033;-62
2022/03/14 01:33:25;;;;;;;3.20;2.90;;;;;;;12.93;55.40;101652.91;5028388;28;20044;-62
2022/03/14 01:35:50;;;;;;;2.65;2.45;;;;;;;12.93;55.00;101661.25;5026577;28;20045;-63
2022/03/14 01:38:16;;;;;;;2.95;2.53;;;;;;;12.95;54.73;101659.03;5024609;28;20723;-62
2022/03/14 01:40:41;;;;;;;3.15;2.85;;;;;;;12.89;54.86;101659.19;5028684;28;20040;-62
2022/03/14 01:43:06;;;;;;;3.00;2.63;;;;;;;12.90;54.72;101653.38;5027581;28;20030;-61
2022/03/14 01:45:32;;;;;;;3.50;2.88;;;;;;;12.86;55.24;101648.56;5025440;28;20412;-61
2022/03/14 01:47:57;;;;;;;3.30;3.00;;;;;;;12.78;55.25;101661.78;5024791;28;20021;-61
2022/03/14 01:50:23;;;;;;;4.03;3.10;;;;;;;12.80;55.23;101661.53;5026231;28;20029;-61
2022/03/14 01:52:48;;;;;;;3.10;2.80;;;;;;;12.81;55.15;101665.16;5029641;28;20489;-61
2022/03/14 01:55:14;;;;;;;3.17;2.83;;;;;;;12.79;55.40;101671.00;5023200;28;20434;-60
2022/03/14 01:57:40;;;;;;;4.55;2.90;;;;;;;12.78;55.36;101672.94;5030124;28;20041;-61
2022/03/14 02:00:08;;;;;;;4.13;2.85;;;;;;;12.74;55.65;101671.75;5030583;28;20453;-61
2022/03/14 02:02:34;;;;;;;3.15;2.78;;;;;;;12.80;55.21;101678.25;5033122;28;20044;-61
2022/03/14 02:04:59;;;;;;;4.28;3.10;;;;;;;12.82;55.12;101675.22;5031673;28;20029;-61
2022/03/14 02:07:25;;;;;;;3.25;2.95;;;;;;;12.78;55.54;101675.72;5030839;28;20040;-61
2022/03/14 02:09:50;;;;;;;3.83;3.03;;;;;;;12.81;55.19;101687.44;5029514;28;20029;-61
2022/03/14 02:12:15;;;;;;;3.13;2.83;;;;;;;12.69;55.54;101682.78;5031990;28;20025;-61
2022/03/14 02:14:41;;;;;;;3.20;2.90;;;;;;;12.67;56.04;101689.69;5030020;28;20025;-61
2022/03/14 02:17:11;;;;;;;3.63;3.05;;;;;;;12.71;55.76;101691.72;5029469;28;20076;-61
2022/03/14 02:19:38;;;;;;;3.40;3.10;;;;;;;12.68;55.84;101699.72;5029828;28;20051;-61
2022/03/14 02:22:05;;;;;;;4.25;3.85;;;;;;;12.71;55.90;101702.88;5023358;28;20034;-61
2022/03/14 02:24:31;;;;;;;3.65;3.20;;;;;;;12.63;56.03;101696.84;5028932;28;20040;-61
2022/03/14 02:26:57;;;;;;;3.85;3.53;;;;;;;12.59;56.21;101704.84;5027214;28;20017;-61
2022/03/14 02:29:26;;;;;;;3.35;3.05;;;;;;;12.70;56.03;101708.69;5026874;28;20033;-61
2022/03/14 02:31:52;;;;;;;3.45;3.15;;;;;;;12.62;56.63;101703.50;5023439;28;20061;-61
2022/03/14 02:34:17;;;;;;;3.72;3.42;;;;;;;12.65;56.04;101697.44;5027348;28;20033;-61
2022/03/14 02:36:42;;;;;;;4.28;3.72;;;;;;;12.63;56.46;101700.47;5023194;28;20026;-61
2022/03/14 02:39:08;;;;;;;3.60;3.30;;;;;;;12.65;56.17;101709.41;5030093;28;20038;-61
2022/03/14 02:41:34;;;;;;;3.53;3.20;;;;;;;12.55;56.56;101709.22;5027525;28;20029;-61
2022/03/14 02:44:01;;;;;;;3.80;3.40;;;;;;;12.58;56.47;101713.44;5028318;28;20029;-61
2022/03/14 02:46:26;;;;;;;4.78;3.42;;;;;;;12.56;56.92;101715.63;5025433;28;20041;-61
2022/03/14 02:48:52;;;;;;;4.03;3.53;;;;;;;12.61;56.67;101710.16;5030135;28;20361;-61
2022/03/14 02:51:17;;;;;;;3.60;3.22;;;;;;;12.55;56.77;101711.16;5027019;28;20122;-61
2022/03/14 02:53:42;;;;;;;3.83;3.15;;;;;;;12.58;56.46;101719.88;5025668;28;20027;-61
2022/03/14 02:56:08;;;;;;;4.72;3.65;;;;;;;12.62;57.21;101731.38;5036617;28;20107;-61
2022/03/14 02:58:35;;;;;;;3.88;3.50;;;;;;;12.59;56.68;101726.28;5040790;28;20045;-61
2022/03/14 03:01:04;;;;;;;3.60;3.30;;;;;;;12.59;56.88;101743.00;5029723;28;20030;-62
2022/03/14 03:03:29;;;;;;;3.63;3.33;;;;;;;12.61;56.39;101752.78;5029755;28;20851;-61
2022/03/14 03:05:54;;;;;;;3.38;3.08;;;;;;;12.60;56.41;101753.03;5023981;28;20108;-61
2022/03/14 03:08:21;;;;;;;4.40;3.30;;;;;;;12.51;56.56;101758.13;5025635;28;20021;-61
2022/03/14 03:10:47;;;;;;;3.75;3.30;;;;;;;12.53;56.91;101761.50;5026041;28;20097;-61
2022/03/14 03:13:13;;;;;;;3.65;3.15;;;;;;;12.49;56.74;101763.94;5030380;28;20104;-61
2022/03/14 03:15:38;;;;;;;3.25;2.95;;;;;;;12.50;56.83;101767.59;5029506;28;20037;-61
2022/03/14 03:18:04;;;;;;;3.60;3.03;;;;;;;12.50;56.44;101779.56;5028278;28;20029;-61
2022/03/14 03:20:30;;;;;;;3.88;3.40;;;;;;;12.46;56.71;101774.72;5027368;28;20469;-61
2022/03/14 03:22:55;;;;;;;3.38;3.08;;;;;;;12.50;56.73;101785.13;5027406;28;20072;-61
2022/03/14 03:25:20;;;;;;;4.03;3.40;;;;;;;12.45;57.06;101792.50;5026437;28;20030;-61
2022/03/14 03:27:46;;;;;;;3.83;3.40;;;;;;;12.37;58.63;101788.16;5026888;28;20029;-61
2022/03/14 03:30:11;;;;;;;3.47;3.17;;;;;;;12.43;58.18;101801.13;5023817;28;20025;-62
2022/03/14 03:32:36;;;;;;;4.20;3.53;;;;;;;12.36;58.57;101805.94;5026601;28;20029;-61
2022/03/14 03:35:02;;;;;;;3.60;3.30;;;;;;;12.36;58.40;101817.09;5020907;28;20120;-61
2022/03/14 03:37:31;;;;;;;3.30;3.10;;;;;;;12.37;58.76;101823.50;5024809;28;20132;-61
2022/03/14 03:39:56;;;;;;;3.45;3.15;;;;;;;12.32;58.99;101828.94;5024907;28;20049;-61
2022/03/14 03:42:21;;;;;;;3.63;3.33;;;;;;;12.31;58.70;101833.69;5027891;28;20489;-61
2022/03/14 03:44:47;;;;;;;3.97;3.50;;;;;;;12.29;58.69;101835.84;5025759;28;20105;-61
2022/03/14 03:47:12;;;;;;;4.20;3.72;;;;;;;12.24;58.67;101841.28;5028923;28;20819;-61
2022/03/14 03:49:38;;;;;;;3.75;3.45;;;;;;;12.28;58.68;101846.13;5029226;28;20049;-61
2022/03/14 03:52:07;;;;;;;4.18;3.60;;;;;;;12.23;58.70;101834.03;5029497;28;20104;-61
2022/03/14 03:54:33;;;;;;;5.00;3.65;;;;;;;12.23;58.52;101843.22;5027908;28;20477;-61
2022/03/14 03:56:58;;;;;;;3.97;3.63;;;;;;;12.20;58.73;101856.78;5028203;28;20034;-62
2022/03/14 03:59:24;;;;;;;4.47;3.63;;;;;;;12.15;59.29;101865.00;5029007;28;20057;-61
2022/03/14 04:01:49;;;;;;;4.28;3.83;;;;;;;12.18;59.04;101875.63;5029197;28;20087;-61
2022/03/14 04:04:14;;;;;;;4.07;3.67;;;;;;;12.14;59.29;101871.63;5031228;28;20540;-62
2022/03/14 04:06:42;;;;;;;4.30;3.83;;;;;;;12.10;59.38;101876.81;5027211;28;20033;-61
2022/03/14 04:09:07;;;;;;;4.40;3.80;;;;;;;12.07;60.55;101876.47;5026981;28;20384;-61
2022/03/14 04:11:35;;;;;;;4.72;4.30;;;;;;;12.09;60.19;101888.22;5028210;28;20029;-61
2022/03/14 04:14:02;;;;;;;6.05;4.22;;;;;;;12.04;60.49;101900.06;5029542;28;20021;-61
2022/03/14 04:16:29;;;;;;;4.78;4.30;;;;;;;11.96;60.96;101892.91;5028232;28;20468;-62
2022/03/14 04:18:55;;;;;;;5.30;4.40;;;;;;;11.95;61.25;101905.13;5027468;28;20473;-61
2022/03/14 04:21:21;;;;;;;6.15;4.60;;;;;;;12.00;60.84;101908.03;5023578;28;20523;-61
2022/03/14 04:23:48;;;;;;;5.63;4.53;;;;;;;11.93;61.34;101906.44;5027531;28;20037;-62
2022/03/14 04:26:13;;;;;;;4.97;4.47;;;;;;;11.93;61.50;101912.00;5027290;28;21473;-62
2022/03/14 04:28:41;;;;;;;4.95;4.45;;;;;;;11.93;61.39;101918.41;5023981;28;20036;-62
2022/03/14 04:31:07;;;;;;;6.65;4.90;;;;;;;11.80;61.51;101919.41;5025846;28;20029;-61
2022/03/14 04:33:33;;;;;;;5.03;4.28;;;;;;;11.78;61.44;101917.94;5029663;28;20037;-62
2022/03/14 04:35:58;;;;;;;5.18;4.65;;;;;;;11.83;61.50;101923.69;5019058;28;20397;-61
2022/03/14 04:38:28;;;;;;;5.82;4.63;;;;;;;11.78;61.50;101920.72;5021674;28;20030;-61
2022/03/14 04:40:56;;;;;;;5.68;4.72;;;;;;;11.84;61.39;101928.19;5023040;28;20108;-61
2022/03/14 04:43:22;;;;;;;7.68;5.13;;;;;;;11.78;61.45;101940.19;5026536;28;20384;-61
2022/03/14 04:45:48;;;;;;;5.40;4.90;;;;;;;11.78;61.30;101935.47;5026160;28;20029;-61
2022/03/14 04:48:17;;;;;;;5.57;5.07;;;;;;;11.78;61.19;101935.47;5036341;28;20025;-62
2022/03/14 04:50:43;;;;;;;5.50;5.00;;;;;;;11.75;61.32;101935.09;5015378;28;20457;-61
2022/03/14 04:53:09;;;;;;;6.05;5.07;;;;;;;11.73;61.26;101945.63;5027435;28;20100;-61
2022/03/14 04:55:35;;;;;;;6.10;5.35;;;;;;;11.74;61.24;101944.53;5024919;28;20040;-61
2022/03/14 04:58:04;;;;;;;6.43;5.65;;;;;;;11.76;61.13;101956.28;5027015;28;20049;-61
2022/03/14 05:00:30;;;;;;;6.45;5.60;;;;;;;11.70;61.30;101962.78;5023970;28;20029;-61
2022/03/14 05:03:06;;;;;;;6.15;5.47;;;;;;;11.75;60.77;101960.13;5029113;28;20029;-61
2022/03/14 05:05:35;;;;;;;6.32;5.40;;;;;;;11.70;61.11;101974.75;5021479;28;20029;-61
2022/03/14 05:08:02;;;;;;;5.80;5.30;;;;;;;11.70;61.03;101977.53;5029128;28;20424;-62
2022/03/14 05:10:34;;;;;;;6.75;6.10;;;;;;;11.67;61.21;101979.91;5021180;28;20030;-61
2022/03/14 05:13:01;;;;;;;5.95;5.40;;;;;;;11.67;61.37;101988.25;5022689;28;20030;-61
2022/03/14 05:15:27;;;;;;;6.30;5.68;;;;;;;11.65;61.10;101991.28;5027934;28;20025;-64
2022/03/14 05:17:52;;;;;;;6.55;5.95;;;;;;;11.61;61.43;101989.22;5026687;28;20875;-62
2022/03/14 05:20:20;;;;;;;9.40;6.30;;;;;;;11.61;61.36;102001.19;5027193;28;20029;-61
2022/03/14 05:22:51;;;;;;;6.75;5.80;;;;;;;11.57;61.41;102002.72;5028673;28;20053;-61
2022/03/14 05:25:18;;;;;;;8.18;6.90;;;;;;;11.48;61.72;102010.53;5029675;28;20025;-61
2022/03/14 05:27:46;;;;;;;7.50;6.68;;;;;;;11.64;61.29;102002.66;5029055;28;20488;-61
2022/03/14 05:30:11;;;;;;;7.57;6.63;;;;;;;11.53;61.60;102010.69;5023325;28;20128;-61
2022/03/14 05:32:39;;;;;;;8.57;7.00;;;;;;;11.59;61.15;102019.16;5023120;28;20025;-61
2022/03/14 05:35:05;;;;;;;9.05;7.78;;;;;;;11.55;61.32;102021.56;5021858;28;20032;-62
2022/03/14 05:37:31;;;;;;;9.13;7.78;;;;;;;11.53;61.43;102030.13;5033615;28;20025;-62
2022/03/14 05:39:56;;;;;;;10.27;8.45;;;;;;;11.58;60.95;102023.03;5022755;28;20025;-61
2022/03/14 05:42:23;;;;;;;12.38;8.93;;;;;;;11.55;61.35;102043.81;5027811;28;20044;-61
2022/03/14 05:44:48;;;;;;;10.85;8.70;;;;;;;11.52;61.27;102041.50;5029325;28;20029;-60
2022/03/14 05:47:13;;;;;;;13.07;9.60;;;;;;;11.63;61.01;102042.66;5024929;28;20059;-61
2022/03/14 05:49:38;;;;;;;12.43;9.25;;;;;;;11.61;61.17;102054.00;5027516;28;20037;-63
2022/03/14 05:52:07;;;;;;;11.80;9.82;;;;;;;11.57;61.27;102057.50;5029157;28;20037;-60
2022/03/14 05:54:34;;;;;;;13.25;9.68;;;;;;;11.57;61.17;102055.56;5025701;28;20017;-61
2022/03/14 05:56:59;;;;;;;11.30;8.80;;;;;;;11.52;61.39;102055.41;5023155;28;20108;-61
2022/03/14 05:59:25;;;;;;;11.63;9.50;;;;;;;11.48;61.54;102065.28;5029719;28;20649;-61
2022/03/14 06:01:50;;;;;;;12.52;10.23;;;;;;;11.53;61.48;102065.44;5030008;28;20022;-61
2022/03/14 06:04:15;;;;;;;14.13;10.80;;;;;;;11.49;61.54;102078.94;5026396;28;20040;-61
2022/03/14 06:06:42;;;;;;;13.82;10.73;;;;;;;11.53;61.42;102079.34;5026964;28;20100;-61
2022/03/14 06:09:07;;;;;;;15.20;9.80;;;;;;;11.42;61.91;102080.94;5028769;28;20041;-61
2022/03/14 06:11:32;;;;;;;12.18;10.35;;;;;;;11.53;61.35;102087.69;5026846;28;20025;-61
2022/03/14 06:13:58;;;;;;;14.40;10.95;;;;;;;11.50;61.22;102088.13;5033844;28;20029;-61
2022/03/14 06:16:24;;;;;;;13.57;10.85;;;;;;;11.44;61.90;102089.91;5031719;28;20064;-61
2022/03/14 06:18:50;;;;;;;13.52;10.60;;;;;;;11.45;61.37;102088.81;5030827;28;20137;-61
2022/03/14 06:21:16;;;;;;;13.25;10.63;;;;;;;11.40;61.73;102101.72;5029478;28;20476;-61
2022/03/14 06:23:41;;;;;;;14.15;10.63;;;;;;;11.45;61.74;102105.50;5023793;28;20036;-61
2022/03/14 06:26:13;;;;;;;14.20;10.98;;;;;;;11.43;61.49;102116.00;5022441;28;20049;-61
2022/03/14 06:28:38;;;;;;;12.90;11.60;;;;;;;11.43;62.20;102109.59;5029606;28;20595;-61
2022/03/14 06:31:03;;;;;;;16.55;12.45;;;;;;;11.38;62.01;102126.09;5028473;28;20047;-61
2022/03/14 06:33:29;;;;;;;16.83;12.55;;;;;;;11.39;61.95;102130.59;5035756;28;20037;-61
2022/03/14 06:35:54;;;;;;;15.98;11.98;;;;;;;11.35;62.15;102129.34;5024504;28;20188;-61
2022/03/14 06:38:19;;;;;;;15.40;11.70;;;;;;;11.39;62.19;102137.00;5023763;28;20057;-61
2022/03/14 06:40:45;;;;;;;14.80;11.75;;;;;;;11.42;62.07;102136.53;5023191;28;20033;-60
2022/03/14 06:43:12;;;;;;;18.02;12.68;;;;;;;11.44;61.89;102134.41;5029477;28;20112;-61
2022/03/14 06:45:39;;;;;;;17.13;12.20;;;;;;;11.45;61.95;102138.03;5020513;28;20034;-62
2022/03/14 06:48:07;;;;;;;16.10;12.88;;;;;;;11.46;61.98;102139.72;5017691;28;20044;-62
2022/03/14 06:50:36;;;;;;;18.30;12.90;;;;;;;11.40;62.21;102147.06;5026339;28;20128;-62
2022/03/14 06:53:01;;;;;;;14.68;12.55;;;;;;;11.48;61.85;102143.97;5034051;28;20068;-61
2022/03/14 06:55:27;;;;;;;16.40;12.38;;;;;;;11.46;61.85;102151.69;5026749;28;20480;-62
2022/03/14 06:57:52;;;;;;;16.77;12.93;;;;;;;11.43;62.42;102154.06;5027681;28;20089;-62
2022/03/14 07:00:18;;;;;;;15.82;12.85;;;;;;;11.42;62.10;102157.94;5027648;28;20473;-62
2022/03/14 07:02:43;;;;;;;14.77;13.18;;;;;;;11.44;62.17;102159.41;5022219;28;20052;-63
2022/03/14 07:05:13;;;;;;;17.67;13.07;;;;;;;11.45;62.14;102160.28;5023195;28;20094;-62
2022/03/14 07:07:40;;;;;;;16.33;12.95;;;;;;;11.43;62.08;102157.69;5026736;28;20028;-63
2022/03/14 07:10:07;;;;;;;17.98;13.35;;;;;;;11.42;61.98;102172.69;5025013;28;20029;-62
2022/03/14 07:12:42;;;;;;;15.63;13.48;;;;;;;11.43;62.15;102168.81;5018489;28;20519;-62
2022/03/14 07:15:08;;;;;;;16.73;13.07;;;;;;;11.47;61.90;102169.22;5025173;28;20044;-61
2022/03/14 07:17:33;;;;;;;18.00;13.20;;;;;;;11.47;62.01;102170.06;5020865;28;20034;-62
2022/03/14 07:19:58;;;;;;;17.80;13.55;;;;;;;11.50;61.75;102177.09;5020176;28;20044;-61
2022/03/14 07:22:25;;;;;;;15.38;13.18;;;;;;;11.48;61.63;102174.56;5028743;28;20061;-59
2022/03/14 07:24:50;;;;;;;16.75;12.25;;;;;;;11.50;61.68;102180.75;5022673;28;20041;-59
2022/03/14 07:27:16;;;;;;;20.30;13.52;;;;;;;11.52;61.72;102184.16;5021817;28;20120;-59
2022/03/14 07:29:41;;;;;;;15.43;12.32;;;;;;;11.57;61.35;102188.19;5016469;28;20432;-60
2022/03/14 07:32:07;;;;;;;16.50;12.63;;;;;;;11.54;61.35;102181.97;5019731;28;20044;-60
2022/03/14 07:34:32;;;;;;;17.50;12.45;;;;;;;11.55;61.13;102189.28;5021279;28;20047;-61
2022/03/14 07:36:57;;;;;;;18.45;12.43;;;;;;;11.57;61.47;102189.03;5015294;28;20033;-60
2022/03/14 07:39:23;;;;;;;17.55;12.68;;;;;;;11.57;61.29;102185.41;5021240;28;20080;-62
2022/03/14 07:41:48;;;;;;;16.05;12.82;;;;;;;11.54;61.33;102187.53;5023810;28;20037;-59
2022/03/14 07:44:13;;;;;;;17.15;12.55;;;;;;;11.58;61.24;102190.72;5023886;28;20408;-60
2022/03/14 07:46:41;;;;;;;18.48;12.45;;;;;;;11.58;61.38;102185.16;5021896;28;20026;-63
2022/03/14 07:49:08;;;;;;;14.80;12.70;;;;;;;11.66;60.95;102189.59;5023128;28;20036;-61
2022/03/14 07:51:33;;;;;;;16.23;13.18;;;;;;;11.63;60.87;102201.16;5024625;28;20132;-61
2022/03/14 07:53:59;;;;;;;17.08;13.50;;;;;;;11.63;61.27;102206.72;5016295;28;20117;-61
2022/03/14 07:56:24;;;;;;;18.27;14.20;;;;;;;11.61;61.29;102208.91;5018845;28;20151;-62
2022/03/14 07:58:50;;;;;;;18.23;14.13;;;;;;;11.64;61.02;102217.63;5024283;28;20057;-61
2022/03/14 08:01:18;;;;;;;20.27;14.20;;;;;;;11.60;61.38;102215.53;5018475;28;20034;-60
2022/03/14 08:03:45;;;;;;;20.48;14.57;;;;;;;11.62;61.10;102217.00;5022835;28;20079;-61
2022/03/14 08:06:11;;;;;;;19.63;13.70;;;;;;;11.59;61.37;102222.16;5015405;28;20033;-60
2022/03/14 08:08:36;;;;;;;17.73;14.10;;;;;;;11.59;61.23;102233.28;5019575;28;20024;-61
2022/03/14 08:11:04;;;;;;;21.23;14.38;;;;;;;11.63;61.19;102226.19;5024591;28;20067;-61
2022/03/14 08:13:30;;;;;;;19.90;14.57;;;;;;;11.61;61.22;102234.78;5024066;28;20041;-61
2022/03/14 08:15:58;;;;;;;19.58;14.93;;;;;;;11.61;61.11;102236.72;5019859;28;20032;-60
2022/03/14 08:18:24;;;;;;;19.17;14.93;;;;;;;11.57;61.16;102235.47;5023387;28;20049;-62
2022/03/14 08:20:55;;;;;;;20.30;14.90;;;;;;;11.60;61.23;102249.75;5024760;28;20354;-62
2022/03/14 08:23:20;;;;;;;21.02;13.95;;;;;;;11.51;61.61;102257.53;5019482;28;20378;-61
2022/03/14 08:25:46;;;;;;;22.73;14.50;;;;;;;11.53;61.53;102257.31;5019473;28;20036;-61
2022/03/14 08:28:11;;;;;;;22.05;14.55;;;;;;;11.55;61.42;102258.78;5021467;28;20036;-61
2022/03/14 08:30:38;;;;;;;19.38;13.38;;;;;;;11.58;61.43;102257.47;5017735;28;20022;-61
2022/03/14 08:33:03;;;;;;;21.00;14.57;;;;;;;11.59;61.53;102263.88;5019265;28;20030;-61
2022/03/14 08:35:29;;;;;;;20.13;13.70;;;;;;;11.60;61.26;102260.03;5020079;28;20354;-61
2022/03/14 08:37:56;;;;;;;17.45;14.07;;;;;;;11.63;61.40;102268.78;5017187;28;20029;-61
2022/03/14 08:40:23;;;;;;;21.60;13.52;;;;;;;11.62;61.08;102278.19;5024286;28;20530;-62
2022/03/14 08:42:51;;;;;;;20.55;13.73;;;;;;;11.63;61.57;102274.34;5026764;28;20041;-62
2022/03/14 08:45:18;;;;;;;20.20;14.02;;;;;;;11.64;61.24;102276.03;5027158;28;20469;-61
2022/03/14 08:47:44;;;;;;;18.08;13.02;;;;;;;11.63;61.49;102290.16;5026706;28;20045;-61
2022/03/14 08:50:11;;;;;;;19.10;13.25;;;;;;;11.63;61.40;102292.94;5024773;28;20029;-62
2022/03/14 08:52:37;;;;;;;21.55;13.52;;;;;;;11.67;61.22;102288.63;5025477;28;20044;-63
2022/03/14 08:55:04;;;;;;;19.02;12.13;;;;;;;11.76;61.65;102306.78;5023012;28;20037;-62
2022/03/14 08:57:30;;;;;;;16.45;11.57;;;;;;;11.77;61.22;102308.47;5025960;28;20049;-63
2022/03/14 08:59:55;;;;;;;13.45;11.07;;;;;;;11.78;60.76;102310.16;5027391;28;20048;-64
2022/03/14 09:02:21;;;;;;;14.38;11.18;;;;;;;11.81;60.69;102315.28;5024642;28;20770;-63
2022/03/14 09:04:46;;;;;;;16.27;11.52;;;;;;;11.77;60.21;102314.88;5024785;28;20055;-63
2022/03/14 09:07:24;;;;;;;16.75;11.93;;;;;;;11.80;60.74;102324.72;5027015;28;20037;-63
2022/03/14 09:09:49;;;;;;;12.10;10.13;;;;;;;11.90;60.31;102330.63;5025325;28;20041;-62
2022/03/14 09:12:14;;;;;;;13.23;10.07;;;;;;;11.88;60.47;102326.41;5031184;28;20037;-62
2022/03/14 09:14:43;;;;;;;17.02;11.52;;;;;;;11.89;60.78;102337.28;5031358;28;20495;-62
2022/03/14 09:17:08;;;;;;;16.00;10.57;;;;;;;11.90;60.25;102336.19;5030844;28;20036;-62
2022/03/14 09:19:34;;;;;;;21.75;11.23;;;;;;;11.92;60.29;102344.34;5026835;28;20026;-63
2022/03/14 09:22:00;;;;;;;18.88;10.52;;;;;;;11.98;60.35;102337.84;5029589;28;20034;-64
2022/03/14 09:24:26;;;;;;;15.25;10.48;;;;;;;11.98;60.19;102344.28;5030584;28;20028;-64
2022/03/14 09:26:53;;;;;;;21.40;10.50;;;;;;;12.08;60.46;102348.50;5032631;28;20028;-65
2022/03/14 09:29:18;;;;;;;15.00;10.48;;;;;;;12.15;59.94;102349.31;5031500;28;20412;-65
2022/03/14 09:31:43;;;;;;;15.50;10.15;;;;;;;12.20;59.60;102339.16;5029872;28;20033;-65
2022/03/14 09:34:08;;;;;;;16.52;10.27;;;;;;;12.25;59.88;102352.41;5031783;28;20041;-62
2022/03/14 09:36:34;;;;;;;16.73;10.45;;;;;;;12.28;59.71;102350.03;5035379;28;20481;-62
2022/03/14 09:38:59;;;;;;;15.13;8.95;;;;;;;12.31;59.26;102362.66;5032776;28;20041;-63
2022/03/14 09:41:28;;;;;;;15.07;10.07;;;;;;;12.27;58.91;102367.81;5033667;28;20040;-62
2022/03/14 09:43:59;;;;;;;14.10;9.55;;;;;;;12.28;58.39;102371.44;5034130;28;20453;-62
2022/03/14 09:46:25;;;;;;;14.93;8.27;;;;;;;12.24;58.39;102371.03;5032579;28;20026;-62
2022/03/14 09:48:56;;;;;;;15.32;8.50;;;;;;;12.29;58.64;102378.72;5033440;28;20121;-62
2022/03/14 09:51:23;;;;;;;13.63;8.80;;;;;;;12.28;58.91;102382.59;5027605;28;20037;-62
2022/03/14 09:53:49;;;;;;;10.73;8.60;;;;;;;12.29;58.55;102390.69;5029256;28;20021;-63
2022/03/14 09:56:15;;;;;;;11.90;8.43;;;;;;;12.32;58.66;102397.75;5030998;28;20373;-62
2022/03/14 09:58:43;;;;;;;14.52;9.10;;;;;;;12.29;58.96;102400.97;5033368;28;20045;-62
2022/03/14 10:01:09;;;;;;;13.95;8.88;;;;;;;12.35;58.23;102404.81;5027308;28;20021;-61
2022/03/14 10:03:37;;;;;;;15.43;9.02;;;;;;;12.36;58.70;102412.91;5033651;28;20087;-62
2022/03/14 10:06:03;;;;;;;14.65;8.65;;;;;;;12.36;58.54;102410.13;5033799;28;20033;-62
2022/03/14 10:08:28;;;;;;;12.50;8.85;;;;;;;12.39;58.37;102418.03;5023889;28;20061;-62
2022/03/14 10:10:59;;;;;;;13.80;9.48;;;;;;;12.43;58.38;102419.28;5026224;28;20034;-62
2022/03/14 10:13:27;;;;;;;11.43;9.18;;;;;;;12.43;58.08;102419.28;5031829;28;20033;-62
2022/03/14 10:15:53;;;;;;;11.05;8.68;;;;;;;12.48;57.75;102415.81;5012002;28;20050;-63
2022/03/14 10:18:19;;;;;;;12.73;8.32;;;;;;;12.50;57.16;102424.81;5025476;28;20515;-62
2022/03/14 10:21:02;;;;;;;12.40;7.47;;;;;;;12.56;57.14;102423.88;5033139;28;20029;-62
2022/03/14 10:23:43;;;;;;;11.93;7.22;;;;;;;12.56;57.15;102411.91;5033070;28;20061;-62
2022/03/14 10:26:15;;;;;;;12.63;7.22;;;;;;;12.59;56.91;102431.78;5026515;28;20037;-62
2022/03/14 10:28:48;;;;;;;12.65;7.78;;;;;;;12.64;56.74;102439.47;5032256;28;20056;-62
2022/03/14 10:31:14;;;;;;;11.82;7.88;;;;;;;12.62;56.59;102450.00;5031482;28;20064;-63
2022/03/14 10:33:39;;;;;;;12.45;9.10;;;;;;;12.61;56.28;102446.31;5033535;28;20068;-63
2022/03/14 10:36:06;;;;;;;12.27;9.35;;;;;;;12.64;56.47;102445.88;5031524;28;20380;-63
2022/03/14 10:38:41;;;;;;;12.48;9.55;;;;;;;12.74;56.45;102453.72;5033368;28;20033;-62
2022/03/14 10:41:16;;;;;;;14.13;11.13;;;;;;;12.71;56.58;102454.19;5031267;28;20455;-62
2022/03/14 10:43:42;;;;;;;15.18;11.80;;;;;;;12.77;56.19;102458.81;5030230;28;20037;-63
2022/03/14 10:46:07;;;;;;;14.02;12.10;;;;;;;12.74;55.98;102454.59;5032149;28;20092;-62
2022/03/14 10:48:40;;;;;;;17.50;12.02;;;;;;;12.78;55.85;102455.84;5031540;28;20036;-63
2022/03/14 10:51:06;;;;;;;;;;;;;;;12.92;56.27;102472.41;5031974;28;20040;-62
2022/03/14 10:53:34;;;;;;;13.27;9.00;;;;;;;13.01;56.02;102459.91;5032322;28;19999;-63
2022/03/14 10:56:00;;;;;;;12.82;8.27;;;;;;;13.13;55.77;102472.00;5027439;28;20029;-62
2022/03/14 10:58:33;;;;;;;12.77;8.50;;;;;;;13.19;55.81;102473.84;5032344;28;20715;-63
2022/03/14 11:01:09;;;;;;;14.25;8.68;;;;;;;13.35;55.30;102483.56;5030942;28;20032;-63
2022/03/14 11:03:36;;;;;;;11.52;7.70;;;;;;;13.46;54.67;102474.44;5025513;28;20091;-63
2022/03/14 11:06:13;;;;;;;35.72;14.15;;;;;;;13.51;53.91;102480.16;5030632;28;20041;-63
2022/03/14 11:08:48;;;;;;;9.98;6.75;;;;;;;13.57;54.01;102483.97;5031728;28;20477;-63
2022/03/14 11:11:20;;;;;;;10.98;6.95;;;;;;;13.63;54.15;102482.16;5030878;28;20112;-63
2022/03/14 11:13:48;;;;;;;13.05;7.43;;;;;;;13.75;53.60;102474.69;5031746;28;20021;-63
2022/03/14 11:16:22;;;;;;;13.95;6.57;;;;;;;13.87;53.20;102478.44;5032092;28;20056;-62